sensor_id;sensor_type;location;lat;lon;timestamp;temperature;humidity
22098;DHT22;11215;51.938;8.464;2023-03-11T00:02:37;4.30;76.70
22098;DHT22;11215;51.938;8.464;2023-03-11T00:08:25;4.30;76.60
22098;DHT22;11215;51.938;8.464;2023-03-11T00:14:12;4.30;76.50
22098;DHT22;11215;51.938;8.464;2023-03-11T00:20:00;4.20;76.50
22098;DHT22;11215;51.938;8.464;2023-03-11T00:25:48;4.20;76.50
22098;DHT22;11215;51.938;8.464;2023-03-11T00:31:35;4.20;76.50
22098;DHT22;11215;51.938;8.464;2023-03-11T00:37:38;4.20;76.50
22098;DHT22;11215;51.938;8.464;2023-03-11T00:40:03;4.30;77.40
22098;DHT22;11215;51.938;8.464;2023-03-11T00:42:33;4.20;76.50
22098;DHT22;11215;51.938;8.464;2023-03-11T00:48:21;4.20;76.50
22098;DHT22;11215;51.938;8.464;2023-03-11T00:54:08;4.20;76.50
22098;DHT22;11215;51.938;8.464;2023-03-11T00:59:56;4.20;76.40
22098;DHT22;11215;51.938;8.464;2023-03-11T01:05:45;4.20;76.50
22098;DHT22;11215;51.938;8.464;2023-03-11T01:14:55;4.20;76.60
22098;DHT22;11215;51.938;8.464;2023-03-11T01:20:42;4.20;76.50
22098;DHT22;11215;51.938;8.464;2023-03-11T01:26:30;4.20;76.50
22098;DHT22;11215;51.938;8.464;2023-03-11T01:29:11;4.20;76.50
22098;DHT22;11215;51.938;8.464;2023-03-11T01:34:59;4.20;76.50
22098;DHT22;11215;51.938;8.464;2023-03-11T01:40:49;4.20;76.50
22098;DHT22;11215;51.938;8.464;2023-03-11T01:52:41;4.20;76.60
22098;DHT22;11215;51.938;8.464;2023-03-11T02:01:57;4.20;76.60
22098;DHT22;11215;51.938;8.464;2023-03-11T02:07:45;4.20;76.70
22098;DHT22;11215;51.938;8.464;2023-03-11T02:13:34;4.30;76.60
22098;DHT22;11215;51.938;8.464;2023-03-11T02:31:55;4.30;76.50
22098;DHT22;11215;51.938;8.464;2023-03-11T02:37:48;4.20;76.60
22098;DHT22;11215;51.938;8.464;2023-03-11T02:53:43;4.20;76.40
22098;DHT22;11215;51.938;8.464;2023-03-11T03:02:54;4.20;76.40
22098;DHT22;11215;51.938;8.464;2023-03-11T03:08:42;4.20;76.40
22098;DHT22;11215;51.938;8.464;2023-03-11T03:14:30;4.20;76.40
22098;DHT22;11215;51.938;8.464;2023-03-11T03:20:18;4.20;76.40
22098;DHT22;11215;51.938;8.464;2023-03-11T03:26:12;4.10;76.20
22098;DHT22;11215;51.938;8.464;2023-03-11T03:32:00;4.10;76.30
22098;DHT22;11215;51.938;8.464;2023-03-11T03:37:47;4.10;76.30
22098;DHT22;11215;51.938;8.464;2023-03-11T03:53:41;4.10;76.50
22098;DHT22;11215;51.938;8.464;2023-03-11T03:59:29;4.10;76.60
22098;DHT22;11215;51.938;8.464;2023-03-11T04:05:17;4.10;76.70
22098;DHT22;11215;51.938;8.464;2023-03-11T04:11:04;4.10;76.70
22098;DHT22;11215;51.938;8.464;2023-03-11T04:16:52;4.10;76.70
22098;DHT22;11215;51.938;8.464;2023-03-11T04:22:40;4.10;76.70
22098;DHT22;11215;51.938;8.464;2023-03-11T04:28:27;4.10;76.60
22098;DHT22;11215;51.938;8.464;2023-03-11T04:34:15;4.10;76.50
22098;DHT22;11215;51.938;8.464;2023-03-11T04:40:30;4.10;76.40
22098;DHT22;11215;51.938;8.464;2023-03-11T04:56:08;4.10;76.60
22098;DHT22;11215;51.938;8.464;2023-03-11T05:01:56;4.00;76.50
22098;DHT22;11215;51.938;8.464;2023-03-11T05:20:56;4.00;76.30
22098;DHT22;11215;51.938;8.464;2023-03-11T05:26:43;4.00;76.30
22098;DHT22;11215;51.938;8.464;2023-03-11T05:32:31;3.90;76.10
22098;DHT22;11215;51.938;8.464;2023-03-11T05:38:18;3.90;76.30
22098;DHT22;11215;51.938;8.464;2023-03-11T05:44:06;3.90;76.30
22098;DHT22;11215;51.938;8.464;2023-03-11T05:50:08;3.90;76.30
22098;DHT22;11215;51.938;8.464;2023-03-11T05:59:36;3.90;76.10
22098;DHT22;11215;51.938;8.464;2023-03-11T06:05:24;3.90;75.90
22098;DHT22;11215;51.938;8.464;2023-03-11T06:11:12;3.80;75.70
22098;DHT22;11215;51.938;8.464;2023-03-11T06:17:00;3.80;75.70
22098;DHT22;11215;51.938;8.464;2023-03-11T06:22:48;3.80;75.70
22098;DHT22;11215;51.938;8.464;2023-03-11T06:28:35;3.70;75.70
22098;DHT22;11215;51.938;8.464;2023-03-11T06:34:23;3.70;75.80
22098;DHT22;11215;51.938;8.464;2023-03-11T06:40:10;3.70;76.00
22098;DHT22;11215;51.938;8.464;2023-03-11T06:45:58;3.80;76.10
22098;DHT22;11215;51.938;8.464;2023-03-11T06:51:45;3.80;76.30
22098;DHT22;11215;51.938;8.464;2023-03-11T07:04:13;3.90;76.20
22098;DHT22;11215;51.938;8.464;2023-03-11T07:06:40;3.90;76.00
22098;DHT22;11215;51.938;8.464;2023-03-11T07:09:06;3.90;76.00
22098;DHT22;11215;51.938;8.464;2023-03-11T07:14:58;3.90;75.90
22098;DHT22;11215;51.938;8.464;2023-03-11T07:20:45;4.00;76.00
22098;DHT22;11215;51.938;8.464;2023-03-11T07:26:34;4.00;76.00
22098;DHT22;11215;51.938;8.464;2023-03-11T07:32:22;4.10;76.50
22098;DHT22;11215;51.938;8.464;2023-03-11T07:41:33;4.40;76.40
22098;DHT22;11215;51.938;8.464;2023-03-11T07:47:21;4.60;75.90
22098;DHT22;11215;51.938;8.464;2023-03-11T07:53:08;4.80;76.10
22098;DHT22;11215;51.938;8.464;2023-03-11T07:58:57;5.20;75.50
22098;DHT22;11215;51.938;8.464;2023-03-11T08:01:25;5.40;75.60
22098;DHT22;11215;51.938;8.464;2023-03-11T08:03:53;5.50;75.20
22098;DHT22;11215;51.938;8.464;2023-03-11T08:09:45;5.60;73.80
22098;DHT22;11215;51.938;8.464;2023-03-11T08:15:32;5.90;73.40
22098;DHT22;11215;51.938;8.464;2023-03-11T08:20:47;6.10;73.00
22098;DHT22;11215;51.938;8.464;2023-03-11T08:23:13;6.30;73.80
22098;DHT22;11215;51.938;8.464;2023-03-11T08:29:00;6.60;71.40
22098;DHT22;11215;51.938;8.464;2023-03-11T08:34:48;6.70;70.60
22098;DHT22;11215;51.938;8.464;2023-03-11T08:40:36;6.80;70.00
22098;DHT22;11215;51.938;8.464;2023-03-11T08:46:28;6.80;69.60
22098;DHT22;11215;51.938;8.464;2023-03-11T08:52:22;6.70;69.50
22098;DHT22;11215;51.938;8.464;2023-03-11T08:58:10;6.60;69.60
22098;DHT22;11215;51.938;8.464;2023-03-11T09:17:16;6.20;69.80
22098;DHT22;11215;51.938;8.464;2023-03-11T09:23:04;6.10;69.70
22098;DHT22;11215;51.938;8.464;2023-03-11T09:28:52;6.00;69.60
22098;DHT22;11215;51.938;8.464;2023-03-11T09:34:29;6.00;69.60
22098;DHT22;11215;51.938;8.464;2023-03-11T09:37:13;6.00;70.30
22098;DHT22;11215;51.938;8.464;2023-03-11T09:56:04;6.10;70.00
22098;DHT22;11215;51.938;8.464;2023-03-11T10:01:53;6.10;70.40
22098;DHT22;11215;51.938;8.464;2023-03-11T10:07:43;6.20;69.90
22098;DHT22;11215;51.938;8.464;2023-03-11T10:20:02;6.30;70.00
22098;DHT22;11215;51.938;8.464;2023-03-11T10:32:40;6.40;69.40
22098;DHT22;11215;51.938;8.464;2023-03-11T10:38:44;6.40;69.10
22098;DHT22;11215;51.938;8.464;2023-03-11T10:44:38;6.50;68.10
22098;DHT22;11215;51.938;8.464;2023-03-11T10:50:26;6.60;68.20
22098;DHT22;11215;51.938;8.464;2023-03-11T11:19:21;6.90;67.20
22098;DHT22;11215;51.938;8.464;2023-03-11T11:35:50;7.10;67.60
22098;DHT22;11215;51.938;8.464;2023-03-11T11:41:38;7.20;66.90
22098;DHT22;11215;51.938;8.464;2023-03-11T11:44:06;7.20;67.60
22098;DHT22;11215;51.938;8.464;2023-03-11T11:46:40;7.30;66.90
22098;DHT22;11215;51.938;8.464;2023-03-11T11:49:55;7.30;66.20
22098;DHT22;11215;51.938;8.464;2023-03-11T11:55:47;7.30;65.40
22098;DHT22;11215;51.938;8.464;2023-03-11T12:17:18;7.40;64.20
22098;DHT22;11215;51.938;8.464;2023-03-11T12:20:13;7.50;65.00
22098;DHT22;11215;51.938;8.464;2023-03-11T12:26:22;7.50;64.30
22098;DHT22;11215;51.938;8.464;2023-03-11T12:39:00;7.70;64.00
22098;DHT22;11215;51.938;8.464;2023-03-11T12:44:49;7.80;63.50
22098;DHT22;11215;51.938;8.464;2023-03-11T12:50:39;7.90;63.60
22098;DHT22;11215;51.938;8.464;2023-03-11T13:13:30;8.00;62.90
22098;DHT22;11215;51.938;8.464;2023-03-11T13:28:58;8.00;62.00
22098;DHT22;11215;51.938;8.464;2023-03-11T13:35:15;8.10;61.70
22098;DHT22;11215;51.938;8.464;2023-03-11T14:01:27;8.20;60.20
22098;DHT22;11215;51.938;8.464;2023-03-11T14:13:16;8.20;61.10
22098;DHT22;11215;51.938;8.464;2023-03-11T14:22:26;8.30;60.40
22098;DHT22;11215;51.938;8.464;2023-03-11T14:28:19;8.30;60.00
22098;DHT22;11215;51.938;8.464;2023-03-11T14:39:57;8.40;59.10
22098;DHT22;11215;51.938;8.464;2023-03-11T14:45:46;8.40;58.60
22098;DHT22;11215;51.938;8.464;2023-03-11T14:51:35;8.40;58.50
22098;DHT22;11215;51.938;8.464;2023-03-11T15:10:30;8.50;58.30
22098;DHT22;11215;51.938;8.464;2023-03-11T15:16:29;8.40;58.10
22098;DHT22;11215;51.938;8.464;2023-03-11T15:22:36;8.40;57.80
22098;DHT22;11215;51.938;8.464;2023-03-11T15:28:28;8.40;57.70
22098;DHT22;11215;51.938;8.464;2023-03-11T15:40:23;8.20;57.10
22098;DHT22;11215;51.938;8.464;2023-03-11T15:46:11;8.20;56.70
22098;DHT22;11215;51.938;8.464;2023-03-11T15:52:18;8.10;56.80
22098;DHT22;11215;51.938;8.464;2023-03-11T15:58:07;8.10;57.00
22098;DHT22;11215;51.938;8.464;2023-03-11T16:03:56;8.10;57.10
22098;DHT22;11215;51.938;8.464;2023-03-11T16:09:44;8.20;57.00
22098;DHT22;11215;51.938;8.464;2023-03-11T16:22:05;8.20;56.40
22098;DHT22;11215;51.938;8.464;2023-03-11T16:24:31;8.20;57.70
22098;DHT22;11215;51.938;8.464;2023-03-11T16:30:17;8.20;55.90
22098;DHT22;11215;51.938;8.464;2023-03-11T16:46:11;8.10;56.60
22098;DHT22;11215;51.938;8.464;2023-03-11T16:51:58;8.00;56.60
22098;DHT22;11215;51.938;8.464;2023-03-11T16:57:46;7.90;56.60
22098;DHT22;11215;51.938;8.464;2023-03-11T17:03:33;7.80;56.40
22098;DHT22;11215;51.938;8.464;2023-03-11T17:09:21;7.70;56.90
22098;DHT22;11215;51.938;8.464;2023-03-11T17:15:10;7.70;57.70
22098;DHT22;11215;51.938;8.464;2023-03-11T17:20:57;7.50;57.30
22098;DHT22;11215;51.938;8.464;2023-03-11T17:26:47;7.40;57.80
22098;DHT22;11215;51.938;8.464;2023-03-11T17:36:24;7.20;58.30
22098;DHT22;11215;51.938;8.464;2023-03-11T17:42:12;7.10;58.40
22098;DHT22;11215;51.938;8.464;2023-03-11T17:48:00;7.10;58.80
22098;DHT22;11215;51.938;8.464;2023-03-11T17:53:48;6.90;58.80
22098;DHT22;11215;51.938;8.464;2023-03-11T17:59:35;6.80;58.90
22098;DHT22;11215;51.938;8.464;2023-03-11T18:05:23;6.60;59.30
22098;DHT22;11215;51.938;8.464;2023-03-11T18:11:13;6.50;60.00
22098;DHT22;11215;51.938;8.464;2023-03-11T18:13:39;6.40;60.30
22098;DHT22;11215;51.938;8.464;2023-03-11T18:19:27;6.30;60.90
22098;DHT22;11215;51.938;8.464;2023-03-11T18:25:14;6.20;61.20
22098;DHT22;11215;51.938;8.464;2023-03-11T18:31:10;6.00;61.30
22098;DHT22;11215;51.938;8.464;2023-03-11T18:46:56;5.80;62.00
22098;DHT22;11215;51.938;8.464;2023-03-11T18:52:43;5.70;62.30
22098;DHT22;11215;51.938;8.464;2023-03-11T18:58:31;5.60;62.50
22098;DHT22;11215;51.938;8.464;2023-03-11T19:04:19;5.50;62.80
22098;DHT22;11215;51.938;8.464;2023-03-11T19:10:07;5.50;63.10
22098;DHT22;11215;51.938;8.464;2023-03-11T19:15:58;5.40;63.30
22098;DHT22;11215;51.938;8.464;2023-03-11T19:21:46;5.30;63.50
22098;DHT22;11215;51.938;8.464;2023-03-11T19:27:34;5.20;63.60
22098;DHT22;11215;51.938;8.464;2023-03-11T19:33:23;5.10;63.80
22098;DHT22;11215;51.938;8.464;2023-03-11T19:45:54;5.00;64.20
22098;DHT22;11215;51.938;8.464;2023-03-11T19:51:41;5.00;63.90
22098;DHT22;11215;51.938;8.464;2023-03-11T19:57:29;4.90;64.20
22098;DHT22;11215;51.938;8.464;2023-03-11T20:03:17;4.80;64.50
22098;DHT22;11215;51.938;8.464;2023-03-11T20:09:04;4.80;64.90
22098;DHT22;11215;51.938;8.464;2023-03-11T20:15:08;4.70;65.00
22098;DHT22;11215;51.938;8.464;2023-03-11T20:20:56;4.70;65.10
22098;DHT22;11215;51.938;8.464;2023-03-11T20:26:44;4.60;65.10
22098;DHT22;11215;51.938;8.464;2023-03-11T20:29:27;4.60;65.00
22098;DHT22;11215;51.938;8.464;2023-03-11T20:31:53;4.60;65.00
22098;DHT22;11215;51.938;8.464;2023-03-11T20:34:18;4.60;65.00
22098;DHT22;11215;51.938;8.464;2023-03-11T20:43:40;4.50;65.10
22098;DHT22;11215;51.938;8.464;2023-03-11T20:49:28;4.40;65.40
22098;DHT22;11215;51.938;8.464;2023-03-11T20:55:16;4.40;65.70
22098;DHT22;11215;51.938;8.464;2023-03-11T21:01:12;4.30;65.80
22098;DHT22;11215;51.938;8.464;2023-03-11T21:06:59;4.30;65.70
22098;DHT22;11215;51.938;8.464;2023-03-11T21:12:47;4.20;65.80
22098;DHT22;11215;51.938;8.464;2023-03-11T21:18:36;4.10;66.00
22098;DHT22;11215;51.938;8.464;2023-03-11T21:24:24;4.10;66.10
22098;DHT22;11215;51.938;8.464;2023-03-11T21:30:12;4.00;65.90
22098;DHT22;11215;51.938;8.464;2023-03-11T21:36:00;4.00;66.00
22098;DHT22;11215;51.938;8.464;2023-03-11T21:48:32;3.90;66.20
22098;DHT22;11215;51.938;8.464;2023-03-11T21:54:20;3.80;66.40
22098;DHT22;11215;51.938;8.464;2023-03-11T22:00:08;3.80;66.60
22098;DHT22;11215;51.938;8.464;2023-03-11T22:05:57;3.80;66.70
22098;DHT22;11215;51.938;8.464;2023-03-11T22:11:45;3.70;67.00
22098;DHT22;11215;51.938;8.464;2023-03-11T22:17:33;3.70;66.90
22098;DHT22;11215;51.938;8.464;2023-03-11T22:23:21;3.60;67.00
22098;DHT22;11215;51.938;8.464;2023-03-11T22:29:08;3.50;67.10
22098;DHT22;11215;51.938;8.464;2023-03-11T22:34:56;3.50;67.20
22098;DHT22;11215;51.938;8.464;2023-03-11T22:40:44;3.50;67.30
22098;DHT22;11215;51.938;8.464;2023-03-11T22:46:32;3.40;67.20
22098;DHT22;11215;51.938;8.464;2023-03-11T22:52:19;3.40;67.30
22098;DHT22;11215;51.938;8.464;2023-03-11T22:58:07;3.40;67.50
22098;DHT22;11215;51.938;8.464;2023-03-11T23:03:55;3.40;67.50
22098;DHT22;11215;51.938;8.464;2023-03-11T23:09:42;3.30;67.60
22098;DHT22;11215;51.938;8.464;2023-03-11T23:15:29;3.30;67.70
22098;DHT22;11215;51.938;8.464;2023-03-11T23:21:26;3.30;67.60
22098;DHT22;11215;51.938;8.464;2023-03-11T23:27:14;3.20;67.20
22098;DHT22;11215;51.938;8.464;2023-03-11T23:33:02;3.10;67.40
22098;DHT22;11215;51.938;8.464;2023-03-11T23:38:50;3.00;67.60
22098;DHT22;11215;51.938;8.464;2023-03-11T23:44:37;3.00;67.80
22098;DHT22;11215;51.938;8.464;2023-03-11T23:50:24;2.90;68.00
